createdAt,value
2018-06-06T00:00:38.418Z,28.80
2018-06-06T00:01:38.408Z,30.20
2018-06-06T00:02:38.398Z,30.60
2018-06-06T00:03:38.387Z,29.30
2018-06-06T00:04:38.381Z,30.70
2018-06-06T00:05:38.366Z,29.90
2018-06-06T00:06:38.355Z,29.40
2018-06-06T00:07:38.347Z,28.70
2018-06-06T00:08:38.335Z,29.70
2018-06-06T00:09:38.402Z,29.50
2018-06-06T00:10:38.314Z,29.30
2018-06-06T00:11:38.305Z,28.40
2018-06-06T00:12:38.296Z,27.60
2018-06-06T00:13:38.283Z,27.10
2018-06-06T00:14:38.273Z,28.20
2018-06-06T00:15:38.261Z,27.70
2018-06-06T00:16:38.250Z,28.20
2018-06-06T00:17:38.241Z,28.80
2018-06-06T00:18:38.231Z,27.90
2018-06-06T00:19:38.222Z,27.10
2018-06-06T00:20:38.210Z,26.40
2018-06-06T00:21:38.199Z,26.50
2018-06-06T00:22:38.188Z,26.20
2018-06-06T00:23:38.179Z,26.40
2018-06-06T00:24:38.167Z,25.40
2018-06-06T00:25:38.158Z,25.30
2018-06-06T00:26:38.147Z,24.90
2018-06-06T00:27:38.135Z,24.80
2018-06-06T00:28:38.126Z,24.70
2018-06-06T00:29:38.115Z,23.60
2018-06-06T00:30:38.105Z,25.10
2018-06-06T00:31:38.095Z,24.30
2018-06-06T00:32:38.095Z,23.80
2018-06-06T00:33:38.077Z,25.30
2018-06-06T00:34:38.062Z,26.40
2018-06-06T00:35:38.053Z,24.40
2018-06-06T00:36:38.042Z,24.80
2018-06-06T00:37:38.035Z,23.80
2018-06-06T00:38:38.022Z,22.50
2018-06-06T00:39:38.054Z,25.10
2018-06-06T00:40:38.000Z,24.40
2018-06-06T00:41:38.191Z,23.20
2018-06-06T00:42:37.980Z,24.70
2018-06-06T00:43:37.970Z,23.90
2018-06-06T00:44:37.959Z,25.40
2018-06-06T00:45:37.949Z,24.30
2018-06-06T00:46:37.939Z,23.50
2018-06-06T00:47:37.930Z,25.60
2018-06-06T00:48:37.917Z,24.70
2018-06-06T00:49:37.908Z,25.30
2018-06-06T00:50:37.897Z,23.60
2018-06-06T00:51:37.887Z,22.90
2018-06-06T00:52:37.876Z,24.10
2018-06-06T00:53:37.865Z,23.50
2018-06-06T00:54:37.856Z,22.70
2018-06-06T00:55:37.844Z,23.80
2018-06-06T00:56:37.834Z,22.20
2018-06-06T00:57:37.824Z,21.40
2018-06-06T00:58:37.814Z,22.70
2018-06-06T00:59:37.806Z,23.30
2018-06-06T01:00:37.793Z,23.30
2018-06-06T01:01:37.783Z,21.80
2018-06-06T01:02:37.773Z,21.90
2018-06-06T01:03:37.764Z,21.10
2018-06-06T01:04:37.752Z,20.20
2018-06-06T01:05:37.741Z,20.20
2018-06-06T01:06:37.731Z,21.00
2018-06-06T01:07:37.721Z,20.60
2018-06-06T01:08:37.710Z,20.20
2018-06-06T01:09:37.699Z,19.10
2018-06-06T01:10:37.691Z,20.60
2018-06-06T01:11:37.880Z,19.70
2018-06-06T01:12:37.676Z,20.30
2018-06-06T01:13:37.658Z,18.40
2018-06-06T01:14:37.646Z,18.70
2018-06-06T01:15:37.638Z,18.90
2018-06-06T01:16:37.626Z,19.60
2018-06-06T01:17:37.616Z,20.70
2018-06-06T01:18:37.607Z,19.50
2018-06-06T01:19:37.595Z,19.80
2018-06-06T01:20:37.584Z,19.00
2018-06-06T01:21:37.574Z,18.70
2018-06-06T01:22:37.564Z,18.70
2018-06-06T01:23:37.554Z,18.20
2018-06-06T01:24:37.543Z,18.30
2018-06-06T01:25:37.534Z,17.40
2018-06-06T01:26:37.523Z,18.20
2018-06-06T01:27:37.513Z,16.60
2018-06-06T01:28:37.501Z,18.70
2018-06-06T01:29:37.490Z,18.20
2018-06-06T01:30:37.481Z,17.80
2018-06-06T01:31:37.473Z,17.10
2018-06-06T01:32:37.467Z,17.20
2018-06-06T01:33:37.450Z,16.40
2018-06-06T01:34:37.441Z,18.60
2018-06-06T01:35:37.433Z,17.80
2018-06-06T01:36:37.418Z,18.10
2018-06-06T01:37:37.412Z,15.70
2018-06-06T01:38:37.400Z,16.80
2018-06-06T01:39:37.387Z,16.20
2018-06-06T01:40:37.377Z,17.50
2018-06-06T01:41:37.568Z,16.30
2018-06-06T01:42:37.357Z,16.40
2018-06-06T01:43:37.347Z,16.70
2018-06-06T01:44:37.336Z,16.70
2018-06-06T01:45:37.324Z,15.40
2018-06-06T01:46:37.317Z,15.70
2018-06-06T01:47:37.305Z,15.70
2018-06-06T01:48:37.295Z,15.90
2018-06-06T01:49:37.285Z,17.10
2018-06-06T01:50:37.275Z,18.10
2018-06-06T01:51:37.265Z,17.40
2018-06-06T01:52:37.254Z,17.40
2018-06-06T01:53:37.243Z,18.50
2018-06-06T01:54:37.235Z,18.60
2018-06-06T01:55:37.224Z,17.80
2018-06-06T01:56:37.214Z,18.50
2018-06-06T01:57:37.203Z,19.30
2018-06-06T01:58:37.192Z,18.80
2018-06-06T01:59:37.183Z,18.70
2018-06-06T02:00:37.172Z,18.70
2018-06-06T02:01:37.162Z,19.80
2018-06-06T02:02:37.152Z,20.30
2018-06-06T02:03:37.142Z,17.70
2018-06-06T02:04:37.132Z,19.60
2018-06-06T02:05:37.121Z,19.40
2018-06-06T02:06:37.111Z,19.60
2018-06-06T02:07:37.101Z,18.80
2018-06-06T02:08:37.090Z,19.10
2018-06-06T02:09:37.081Z,18.50
2018-06-06T02:10:37.070Z,19.00
2018-06-06T02:11:37.260Z,19.10
2018-06-06T02:12:37.050Z,18.90
2018-06-06T02:13:37.041Z,18.40
2018-06-06T02:14:37.030Z,18.60
2018-06-06T02:15:37.021Z,18.20
2018-06-06T02:16:37.009Z,17.40
2018-06-06T02:17:37.000Z,18.10
2018-06-06T02:18:36.991Z,18.00
2018-06-06T02:19:36.980Z,17.70
2018-06-06T02:20:36.969Z,18.60
2018-06-06T02:21:36.966Z,17.50
2018-06-06T02:22:36.950Z,18.10
2018-06-06T02:23:36.943Z,17.90
2018-06-06T02:24:36.929Z,17.40
2018-06-06T02:25:36.918Z,17.60
2018-06-06T02:26:36.909Z,18.10
2018-06-06T02:27:36.899Z,17.70
2018-06-06T02:28:36.888Z,17.60
2018-06-06T02:29:36.878Z,17.60
2018-06-06T02:30:36.869Z,17.40
2018-06-06T02:31:36.861Z,16.60
2018-06-06T02:32:36.848Z,16.30
2018-06-06T02:33:36.841Z,17.20
2018-06-06T02:34:36.830Z,16.60
2018-06-06T02:35:36.818Z,16.60
2018-06-06T02:36:36.808Z,16.10
2018-06-06T02:37:36.799Z,16.10
2018-06-06T02:38:36.788Z,15.20
2018-06-06T02:39:36.779Z,14.90
2018-06-06T02:40:36.767Z,15.90
2018-06-06T02:41:36.759Z,14.90
2018-06-06T02:42:36.747Z,15.40
2018-06-06T02:43:36.738Z,15.50
2018-06-06T02:44:36.727Z,16.00
2018-06-06T02:45:36.718Z,15.80
2018-06-06T02:46:36.708Z,15.20
2018-06-06T02:47:36.699Z,15.20
2018-06-06T02:48:36.687Z,15.90
2018-06-06T02:49:36.677Z,15.00
2018-06-06T02:50:36.667Z,16.10
2018-06-06T02:51:36.658Z,16.00
2018-06-06T02:52:36.650Z,16.10
2018-06-06T02:53:36.637Z,16.50
2018-06-06T02:54:36.627Z,16.40
2018-06-06T02:55:36.617Z,15.10
2018-06-06T02:56:36.607Z,15.70
2018-06-06T02:57:36.597Z,15.00
2018-06-06T02:58:36.586Z,15.40
2018-06-06T02:59:36.578Z,14.80
2018-06-06T03:00:36.567Z,15.30
2018-06-06T03:01:36.559Z,15.00
2018-06-06T03:02:36.547Z,16.30
2018-06-06T03:03:36.538Z,15.70
2018-06-06T03:04:36.526Z,15.10
2018-06-06T03:05:36.517Z,15.50
2018-06-06T03:06:36.508Z,15.20
2018-06-06T03:07:36.498Z,14.90
2018-06-06T03:08:36.487Z,15.60
2018-06-06T03:09:36.476Z,15.40
2018-06-06T03:10:36.468Z,15.30
2018-06-06T03:11:36.458Z,14.60
2018-06-06T03:12:36.449Z,14.80
2018-06-06T03:13:36.438Z,15.50
2018-06-06T03:14:36.428Z,15.60
2018-06-06T03:15:36.419Z,14.20
2018-06-06T03:16:36.408Z,15.50
2018-06-06T03:17:36.399Z,14.30
2018-06-06T03:18:36.389Z,14.50
2018-06-06T03:19:36.379Z,14.10
2018-06-06T03:20:36.368Z,14.50
2018-06-06T03:21:36.357Z,14.60
2018-06-06T03:22:36.348Z,13.70
2018-06-06T03:23:36.338Z,15.00
2018-06-06T03:24:36.327Z,13.70
2018-06-06T03:25:36.317Z,13.60
2018-06-06T03:26:36.308Z,14.00
2018-06-06T03:27:36.297Z,13.60
2018-06-06T03:28:36.290Z,13.10
2018-06-06T03:29:36.277Z,13.40
2018-06-06T03:30:36.267Z,13.50
2018-06-06T03:31:36.257Z,13.70
2018-06-06T03:32:36.247Z,12.40
2018-06-06T03:33:36.240Z,14.20
2018-06-06T03:34:36.227Z,14.00
2018-06-06T03:35:36.217Z,13.70
2018-06-06T03:36:36.206Z,13.50
2018-06-06T03:37:36.196Z,12.90
2018-06-06T03:38:36.186Z,12.80
2018-06-06T03:39:36.177Z,13.10
2018-06-06T03:40:36.165Z,13.90
2018-06-06T03:41:36.156Z,13.70
2018-06-06T03:42:36.149Z,13.40
2018-06-06T03:43:36.137Z,14.50
2018-06-06T03:44:36.124Z,13.00
2018-06-06T03:45:36.116Z,13.20
2018-06-06T03:46:36.106Z,14.10
2018-06-06T03:47:36.096Z,12.60
2018-06-06T03:48:36.086Z,14.30
2018-06-06T03:49:36.076Z,12.90
2018-06-06T03:50:36.066Z,13.60
2018-06-06T03:51:36.056Z,13.30
2018-06-06T03:52:36.044Z,13.80
2018-06-06T03:53:36.036Z,13.80
2018-06-06T03:54:36.029Z,14.50
2018-06-06T03:55:36.017Z,15.80
2018-06-06T03:56:36.007Z,14.70
2018-06-06T03:57:35.996Z,15.10
2018-06-06T03:58:35.986Z,15.90
2018-06-06T03:59:35.977Z,16.40
2018-06-06T04:00:35.969Z,15.80
2018-06-06T04:01:35.955Z,15.80
2018-06-06T04:02:35.946Z,15.90
2018-06-06T04:03:35.936Z,15.60
2018-06-06T04:04:35.926Z,14.60
2018-06-06T04:05:35.916Z,15.50
2018-06-06T04:06:35.906Z,16.50
2018-06-06T04:07:35.895Z,15.80
2018-06-06T04:08:35.883Z,16.60
2018-06-06T04:09:35.878Z,15.70
2018-06-06T04:10:35.910Z,15.60
2018-06-06T04:11:35.855Z,16.00
2018-06-06T04:12:35.845Z,15.90
2018-06-06T04:13:35.835Z,16.20
2018-06-06T04:14:35.825Z,15.40
2018-06-06T04:15:35.815Z,15.10
2018-06-06T04:16:35.806Z,16.60
2018-06-06T04:17:35.793Z,16.30
2018-06-06T04:18:35.785Z,16.20
2018-06-06T04:19:35.774Z,15.30
2018-06-06T04:20:35.764Z,16.30
2018-06-06T04:21:35.754Z,16.40
2018-06-06T04:22:35.745Z,16.40
2018-06-06T04:23:35.733Z,16.10
2018-06-06T04:24:35.723Z,16.30
2018-06-06T04:25:35.713Z,16.20
2018-06-06T04:26:35.703Z,15.90
2018-06-06T04:27:35.693Z,14.70
2018-06-06T04:28:35.684Z,15.20
2018-06-06T04:29:35.673Z,15.40
2018-06-06T04:30:35.663Z,15.60
2018-06-06T04:31:35.657Z,16.40
2018-06-06T04:32:35.642Z,15.70
2018-06-06T04:33:35.686Z,15.40
2018-06-06T04:34:35.626Z,15.50
2018-06-06T04:35:35.612Z,16.10
2018-06-06T04:36:35.602Z,15.40
2018-06-06T04:37:35.591Z,14.50
2018-06-06T04:38:35.581Z,15.10
2018-06-06T04:39:35.669Z,16.20
2018-06-06T04:40:35.560Z,15.70
2018-06-06T04:41:35.552Z,16.30
2018-06-06T04:42:35.540Z,15.50
2018-06-06T04:43:35.530Z,16.40
2018-06-06T04:44:35.522Z,15.60
2018-06-06T04:45:35.508Z,16.40
2018-06-06T04:46:35.499Z,17.00
2018-06-06T04:47:35.487Z,15.40
2018-06-06T04:48:35.477Z,16.40
2018-06-06T04:49:35.467Z,16.70
2018-06-06T04:50:35.457Z,16.00
2018-06-06T04:51:35.446Z,15.60
2018-06-06T04:52:35.436Z,17.30
2018-06-06T04:53:35.425Z,15.30
2018-06-06T04:54:35.416Z,16.30
2018-06-06T04:55:35.405Z,16.60
2018-06-06T04:56:35.394Z,16.50
2018-06-06T04:57:35.384Z,17.80
2018-06-06T04:58:35.373Z,15.70
2018-06-06T04:59:35.370Z,15.80
2018-06-06T05:00:35.352Z,16.10
2018-06-06T05:01:35.341Z,15.90
2018-06-06T05:02:35.332Z,15.30
2018-06-06T05:03:35.322Z,16.20
2018-06-06T05:04:35.310Z,16.40
2018-06-06T05:05:35.336Z,16.00
2018-06-06T05:06:35.289Z,14.40
2018-06-06T05:07:35.279Z,15.00
2018-06-06T05:08:35.267Z,15.50
2018-06-06T05:09:35.256Z,14.50
2018-06-06T05:10:35.247Z,15.40
2018-06-06T05:11:35.241Z,15.60
2018-06-06T05:12:35.225Z,15.30
2018-06-06T05:13:35.214Z,14.90
2018-06-06T05:14:35.203Z,15.30
2018-06-06T05:15:35.198Z,13.90
2018-06-06T05:16:35.183Z,14.00
2018-06-06T05:17:35.173Z,13.30
2018-06-06T05:18:35.162Z,14.10
2018-06-06T05:19:35.152Z,14.80
2018-06-06T05:20:35.140Z,14.60
2018-06-06T05:21:35.131Z,14.70
2018-06-06T05:22:35.121Z,15.20
2018-06-06T05:23:35.111Z,15.40
2018-06-06T05:24:35.100Z,15.80
2018-06-06T05:25:35.088Z,16.10
2018-06-06T05:26:35.083Z,15.90
2018-06-06T05:27:35.068Z,15.30
2018-06-06T05:28:35.058Z,15.60
2018-06-06T05:29:35.047Z,16.20
2018-06-06T05:30:35.039Z,15.00
2018-06-06T05:31:35.027Z,16.00
2018-06-06T05:32:35.070Z,16.40
2018-06-06T05:33:35.006Z,16.30
2018-06-06T05:34:34.995Z,15.80
2018-06-06T05:35:34.984Z,16.50
2018-06-06T05:36:34.973Z,16.90
2018-06-06T05:37:34.963Z,16.70
2018-06-06T05:38:34.953Z,16.40
2018-06-06T05:39:34.942Z,16.10
2018-06-06T05:40:34.931Z,16.10
2018-06-06T05:41:34.921Z,15.40
2018-06-06T05:42:34.952Z,16.60
2018-06-06T05:43:34.901Z,16.10
2018-06-06T05:44:34.890Z,15.20
2018-06-06T05:45:34.902Z,16.60
2018-06-06T05:46:34.901Z,16.30
2018-06-06T05:47:34.868Z,16.00
2018-06-06T05:48:34.870Z,17.10
2018-06-06T05:49:34.869Z,17.20
2018-06-06T05:50:34.838Z,16.10
2018-06-06T05:51:34.844Z,17.80
2018-06-06T05:52:34.806Z,17.10
2018-06-06T05:53:34.829Z,17.30
2018-06-06T05:54:34.816Z,16.70
2018-06-06T05:55:34.775Z,17.40
2018-06-06T05:56:34.777Z,18.00
2018-06-06T05:57:34.771Z,17.80
2018-06-06T05:58:34.771Z,18.60
2018-06-06T05:59:34.763Z,18.50
2018-06-06T06:00:34.724Z,18.00
2018-06-06T06:01:34.734Z,18.30
2018-06-06T06:02:34.739Z,18.90
2018-06-06T06:03:34.690Z,18.10
2018-06-06T06:04:34.678Z,19.40
2018-06-06T06:05:34.668Z,19.50
2018-06-06T06:06:34.658Z,19.50
2018-06-06T06:07:34.648Z,20.20
2018-06-06T06:08:34.636Z,21.80
2018-06-06T06:09:34.625Z,20.60
2018-06-06T06:10:34.617Z,22.20
2018-06-06T06:11:34.606Z,22.10
2018-06-06T06:12:34.595Z,23.60
2018-06-06T06:13:34.584Z,24.40
2018-06-06T06:14:34.573Z,25.40
2018-06-06T06:15:34.563Z,24.30
2018-06-06T06:16:34.552Z,26.20
2018-06-06T06:17:34.553Z,24.70
2018-06-06T06:18:34.531Z,25.90
2018-06-06T06:19:34.521Z,25.70
2018-06-06T06:20:34.508Z,25.10
2018-06-06T06:21:34.499Z,25.80
2018-06-06T06:22:34.488Z,24.30
2018-06-06T06:23:34.478Z,24.90
2018-06-06T06:24:34.466Z,24.80
2018-06-06T06:25:34.457Z,25.20
2018-06-06T06:26:34.446Z,24.30
2018-06-06T06:27:34.436Z,24.10
2018-06-06T06:28:34.424Z,23.50
2018-06-06T06:29:34.413Z,23.20
2018-06-06T06:30:34.402Z,23.50
2018-06-06T06:31:34.392Z,23.70
2018-06-06T06:32:34.379Z,24.30
2018-06-06T06:33:34.420Z,23.60
2018-06-06T06:34:34.362Z,22.90
2018-06-06T06:35:34.350Z,22.90
2018-06-06T06:36:34.338Z,22.90
2018-06-06T06:37:34.327Z,24.40
2018-06-06T06:38:34.317Z,24.10
2018-06-06T06:39:34.306Z,23.40
2018-06-06T06:40:34.295Z,24.00
2018-06-06T06:41:34.283Z,25.60
2018-06-06T06:42:34.274Z,25.30
2018-06-06T06:43:34.265Z,25.20
2018-06-06T06:44:34.253Z,26.40
2018-06-06T06:45:34.242Z,26.60
2018-06-06T06:46:34.232Z,26.70
2018-06-06T06:47:34.221Z,26.40
2018-06-06T06:48:34.208Z,26.30
2018-06-06T06:49:34.200Z,26.30
2018-06-06T06:50:34.188Z,26.70
2018-06-06T06:51:34.177Z,26.80
2018-06-06T06:52:34.187Z,28.40
2018-06-06T06:53:34.156Z,27.50
2018-06-06T06:54:34.145Z,27.80
2018-06-06T06:55:34.136Z,28.00
2018-06-06T06:56:34.123Z,26.20
2018-06-06T06:57:34.112Z,28.20
2018-06-06T06:58:34.101Z,28.60
2018-06-06T06:59:34.091Z,26.50
2018-06-06T07:00:34.079Z,27.20
2018-06-06T07:01:34.068Z,27.50
2018-06-06T07:02:34.059Z,26.60
2018-06-06T07:03:34.051Z,28.80
2018-06-06T07:04:34.042Z,29.50
2018-06-06T07:05:34.027Z,31.60
2018-06-06T07:06:34.016Z,33.70
2018-06-06T07:07:34.008Z,36.50
2018-06-06T07:08:33.994Z,37.70
2018-06-06T07:09:33.984Z,36.60
2018-06-06T07:10:33.974Z,36.90
2018-06-06T07:11:34.164Z,38.20
2018-06-06T07:12:33.952Z,38.60
2018-06-06T07:13:33.941Z,36.40
2018-06-06T07:14:33.930Z,37.10
2018-06-06T07:15:33.920Z,37.20
2018-06-06T07:16:33.909Z,37.90
2018-06-06T07:17:33.898Z,39.40
2018-06-06T07:18:33.888Z,35.80
2018-06-06T07:19:33.878Z,36.90
2018-06-06T07:20:33.866Z,35.80
2018-06-06T07:21:33.856Z,36.50
2018-06-06T07:22:33.845Z,37.60
2018-06-06T07:23:33.835Z,37.80
2018-06-06T07:24:33.826Z,36.70
2018-06-06T07:25:33.813Z,37.10
2018-06-06T07:26:33.803Z,36.60
2018-06-06T07:27:33.792Z,36.40
2018-06-06T07:28:33.781Z,35.70
2018-06-06T07:29:33.970Z,34.80
2018-06-06T07:30:33.760Z,35.60
2018-06-06T07:31:33.749Z,34.20
2018-06-06T07:32:33.738Z,33.50
2018-06-06T07:33:33.733Z,33.80
2018-06-06T07:34:33.717Z,32.00
2018-06-06T07:35:33.707Z,31.10
2018-06-06T07:36:33.695Z,29.90
2018-06-06T07:37:33.685Z,29.40
2018-06-06T07:38:33.674Z,28.30
2018-06-06T07:39:33.664Z,28.00
2018-06-06T07:40:33.652Z,26.60
2018-06-06T07:41:33.641Z,27.10
2018-06-06T07:42:33.631Z,27.40
2018-06-06T07:43:33.621Z,28.00
2018-06-06T07:44:33.609Z,28.80
2018-06-06T07:45:33.607Z,27.30
2018-06-06T07:46:33.588Z,28.40
2018-06-06T07:47:33.578Z,27.70
2018-06-06T07:48:33.567Z,28.50
2018-06-06T07:49:33.556Z,27.20
2018-06-06T07:50:33.546Z,26.90
2018-06-06T07:51:33.536Z,25.90
2018-06-06T07:52:33.570Z,26.50
2018-06-06T07:53:33.514Z,25.70
2018-06-06T07:54:33.504Z,25.50
2018-06-06T07:55:33.494Z,25.90
2018-06-06T07:56:33.486Z,24.50
2018-06-06T07:57:33.472Z,23.70
2018-06-06T07:58:33.462Z,23.50
2018-06-06T07:59:33.453Z,24.00
2018-06-06T08:00:33.988Z,23.80
2018-06-06T08:01:33.431Z,23.30
2018-06-06T08:02:33.420Z,23.20
2018-06-06T08:03:33.410Z,23.50
2018-06-06T08:04:33.400Z,23.60
2018-06-06T08:05:33.389Z,22.00
2018-06-06T08:06:33.378Z,22.50
2018-06-06T08:07:33.368Z,22.40
2018-06-06T08:08:33.358Z,22.90
2018-06-06T08:09:33.347Z,22.80
2018-06-06T08:10:33.337Z,22.00
2018-06-06T08:11:33.327Z,20.20
2018-06-06T08:12:33.346Z,20.70
2018-06-06T08:13:33.306Z,20.00
2018-06-06T08:14:33.296Z,20.40
2018-06-06T08:15:33.285Z,18.90
2018-06-06T08:16:33.274Z,20.30
2018-06-06T08:17:33.264Z,19.60
2018-06-06T08:18:33.254Z,20.10
2018-06-06T08:19:33.244Z,19.20
2018-06-06T08:20:33.233Z,19.20
2018-06-06T08:21:33.272Z,18.30
2018-06-06T08:22:33.213Z,19.50
2018-06-06T08:23:33.203Z,18.50
2018-06-06T08:24:33.192Z,19.30
2018-06-06T08:25:33.181Z,18.30
2018-06-06T08:26:33.171Z,18.40
2018-06-06T08:27:33.162Z,18.30
2018-06-06T08:28:33.150Z,18.20
2018-06-06T08:29:33.140Z,17.40
2018-06-06T08:30:33.130Z,18.10
2018-06-06T08:31:33.120Z,18.20
2018-06-06T08:32:33.109Z,18.20
2018-06-06T08:33:33.099Z,18.00
2018-06-06T08:34:33.092Z,18.00
2018-06-06T08:35:33.280Z,18.50
2018-06-06T08:36:33.068Z,17.90
2018-06-06T08:37:33.061Z,17.80
2018-06-06T08:38:33.049Z,18.00
2018-06-06T08:39:33.038Z,18.50
2018-06-06T08:40:33.028Z,18.90
2018-06-06T08:41:33.017Z,18.30
2018-06-06T08:42:33.008Z,19.50
2018-06-06T08:43:32.999Z,18.20
2018-06-06T08:44:33.042Z,19.10
2018-06-06T08:45:32.977Z,19.20
2018-06-06T08:46:32.972Z,19.00
2018-06-06T08:47:32.957Z,19.50
2018-06-06T08:48:32.947Z,19.80
2018-06-06T08:49:32.937Z,19.20
2018-06-06T08:50:32.927Z,19.80
2018-06-06T08:51:32.918Z,19.30
2018-06-06T08:52:32.909Z,19.60
2018-06-06T08:53:32.897Z,18.70
2018-06-06T08:54:32.887Z,18.10
2018-06-06T08:55:32.876Z,18.70
2018-06-06T08:56:32.912Z,18.00
2018-06-06T08:57:32.855Z,18.40
2018-06-06T08:58:32.845Z,18.60
2018-06-06T08:59:32.837Z,19.40
2018-06-06T09:00:32.827Z,19.40
2018-06-06T09:01:32.815Z,18.70
2018-06-06T09:02:32.806Z,18.90
2018-06-06T09:03:32.798Z,19.70
2018-06-06T09:04:32.785Z,19.10
2018-06-06T09:05:32.775Z,19.40
2018-06-06T09:06:32.766Z,19.10
2018-06-06T09:07:32.756Z,20.30
2018-06-06T09:08:32.745Z,19.60
2018-06-06T09:09:32.764Z,19.60
2018-06-06T09:10:32.726Z,18.30
2018-06-06T09:11:32.916Z,20.50
2018-06-06T09:12:32.705Z,19.70
2018-06-06T09:13:32.695Z,19.90
2018-06-06T09:14:32.693Z,20.40
2018-06-06T09:15:32.694Z,21.90
2018-06-06T09:16:32.666Z,20.80
2018-06-06T09:17:32.856Z,20.50
2018-06-06T09:18:32.645Z,20.40
2018-06-06T09:19:32.635Z,20.90
2018-06-06T09:20:32.626Z,21.60
2018-06-06T09:21:32.615Z,23.00
2018-06-06T09:22:32.604Z,22.50
2018-06-06T09:23:32.594Z,25.30
2018-06-06T09:24:32.583Z,24.00
2018-06-06T09:25:32.573Z,23.80
2018-06-06T09:26:32.563Z,25.40
2018-06-06T09:27:32.553Z,25.30
2018-06-06T09:28:32.542Z,24.80
2018-06-06T09:29:32.531Z,24.30
2018-06-06T09:30:32.522Z,24.10
2018-06-06T09:31:32.512Z,24.10
2018-06-06T09:32:32.500Z,23.40
2018-06-06T09:33:32.489Z,21.80
2018-06-06T09:34:32.480Z,22.10
2018-06-06T09:35:32.471Z,22.90
2018-06-06T09:36:32.458Z,22.50
2018-06-06T09:37:32.449Z,23.00
2018-06-06T09:38:32.439Z,21.40
2018-06-06T09:39:32.428Z,22.10
2018-06-06T09:40:32.417Z,22.40
2018-06-06T09:41:32.407Z,22.90
2018-06-06T09:42:32.397Z,21.90
2018-06-06T09:43:32.388Z,22.60
2018-06-06T09:44:32.375Z,23.00
2018-06-06T09:45:32.366Z,22.30
2018-06-06T09:46:32.356Z,21.80
2018-06-06T09:47:32.345Z,22.10
2018-06-06T09:48:32.337Z,20.70
2018-06-06T09:49:32.324Z,20.70
2018-06-06T09:50:32.314Z,22.30
2018-06-06T09:51:32.304Z,21.40
2018-06-06T09:52:32.293Z,21.10
2018-06-06T09:53:32.283Z,21.40
2018-06-06T09:54:32.273Z,22.00
2018-06-06T09:55:32.262Z,21.70
2018-06-06T09:56:32.251Z,23.10
2018-06-06T09:57:32.241Z,24.10
2018-06-06T09:58:32.231Z,23.40
2018-06-06T09:59:32.221Z,23.60
2018-06-06T10:00:32.210Z,24.90
2018-06-06T10:01:32.200Z,24.20
2018-06-06T10:02:32.189Z,24.10
2018-06-06T10:03:32.180Z,25.40
2018-06-06T10:04:32.169Z,25.50
2018-06-06T10:05:32.158Z,24.10
2018-06-06T10:06:32.149Z,27.20
2018-06-06T10:07:32.139Z,26.80
2018-06-06T10:08:32.128Z,28.00
2018-06-06T10:09:32.118Z,28.70
2018-06-06T10:10:32.108Z,27.90
2018-06-06T10:11:32.098Z,26.60
2018-06-06T10:12:32.088Z,26.70
2018-06-06T10:13:32.080Z,28.00
2018-06-06T10:14:32.070Z,29.40
2018-06-06T10:15:32.059Z,31.70
2018-06-06T10:16:32.048Z,30.80
2018-06-06T10:17:32.038Z,30.50
2018-06-06T10:18:32.029Z,30.00
2018-06-06T10:19:32.019Z,30.30
2018-06-06T10:20:32.010Z,31.40
2018-06-06T10:21:31.999Z,31.20
2018-06-06T10:22:31.989Z,31.10
2018-06-06T10:23:31.979Z,30.70
2018-06-06T10:24:31.971Z,29.90
2018-06-06T10:25:31.959Z,31.20
2018-06-06T10:26:31.951Z,32.10
2018-06-06T10:27:31.942Z,31.10
2018-06-06T10:28:31.929Z,31.30
2018-06-06T10:29:31.920Z,31.60
2018-06-06T10:30:31.910Z,31.10
2018-06-06T10:31:31.903Z,31.90
2018-06-06T10:32:31.889Z,30.70
2018-06-06T10:33:31.880Z,31.10
2018-06-06T10:34:31.871Z,31.50
2018-06-06T10:35:31.860Z,30.00
2018-06-06T10:36:31.852Z,30.70
2018-06-06T10:37:31.840Z,31.30
2018-06-06T10:38:31.831Z,29.70
2018-06-06T10:39:31.821Z,29.60
2018-06-06T10:40:31.808Z,30.30
2018-06-06T10:41:31.800Z,30.90
2018-06-06T10:42:31.791Z,33.00
2018-06-06T10:43:31.781Z,31.80
2018-06-06T10:44:31.773Z,30.90
2018-06-06T10:45:31.761Z,30.80
2018-06-06T10:46:31.752Z,32.50
2018-06-06T10:47:31.742Z,32.00
2018-06-06T10:48:31.730Z,30.60
2018-06-06T10:49:31.721Z,31.10
2018-06-06T10:50:31.712Z,31.00
2018-06-06T10:51:31.704Z,29.50
2018-06-06T10:52:31.693Z,29.50
2018-06-06T10:53:31.682Z,28.80
2018-06-06T10:54:31.673Z,29.20
2018-06-06T10:55:31.664Z,29.80
2018-06-06T10:56:31.654Z,28.30
2018-06-06T10:57:31.643Z,29.80
2018-06-06T10:58:31.634Z,31.00
2018-06-06T10:59:31.684Z,31.00
2018-06-06T11:00:31.613Z,32.10
2018-06-06T11:01:31.605Z,32.60
2018-06-06T11:02:31.595Z,32.60
2018-06-06T11:03:31.586Z,32.70
2018-06-06T11:04:31.576Z,32.10
2018-06-06T11:05:31.567Z,33.10
2018-06-06T11:06:31.557Z,32.70
2018-06-06T11:07:31.548Z,33.00
2018-06-06T11:08:31.540Z,34.60
2018-06-06T11:09:31.528Z,34.50
2018-06-06T11:10:31.519Z,33.30
2018-06-06T11:11:31.510Z,31.60
2018-06-06T11:12:31.500Z,31.80
2018-06-06T11:13:31.490Z,32.60
2018-06-06T11:14:31.481Z,33.70
2018-06-06T11:15:31.476Z,33.70
2018-06-06T11:16:31.467Z,33.00
2018-06-06T11:17:31.452Z,32.70
2018-06-06T11:18:31.444Z,33.80
2018-06-06T11:19:31.433Z,32.10
2018-06-06T11:20:31.425Z,32.40
2018-06-06T11:21:31.416Z,31.00
2018-06-06T11:22:31.406Z,31.50
2018-06-06T11:23:31.397Z,31.80
2018-06-06T11:24:31.387Z,30.10
2018-06-06T11:25:31.378Z,31.20
2018-06-06T11:26:31.372Z,30.80
2018-06-06T11:27:31.360Z,30.70
2018-06-06T11:28:31.350Z,32.40
2018-06-06T11:29:31.343Z,31.40
2018-06-06T11:30:31.335Z,32.00
2018-06-06T11:31:31.323Z,30.50
2018-06-06T11:32:31.314Z,30.10
2018-06-06T11:33:31.306Z,30.80
2018-06-06T11:34:31.336Z,31.50
2018-06-06T11:35:31.287Z,30.90
2018-06-06T11:36:31.277Z,31.10
2018-06-06T11:37:31.267Z,31.20
2018-06-06T11:38:31.259Z,30.80
2018-06-06T11:39:31.250Z,31.70
2018-06-06T11:40:31.243Z,31.10
2018-06-06T11:41:31.231Z,30.40
2018-06-06T11:42:31.222Z,30.70
2018-06-06T11:43:31.212Z,31.40
2018-06-06T11:44:31.203Z,30.60
2018-06-06T11:45:31.198Z,32.40
2018-06-06T11:46:31.186Z,30.20
2018-06-06T11:47:31.180Z,31.00
2018-06-06T11:48:31.167Z,30.80
2018-06-06T11:49:31.161Z,31.20
2018-06-06T11:50:31.149Z,31.10
2018-06-06T11:51:31.141Z,32.00
2018-06-06T11:52:31.134Z,31.00
2018-06-06T11:53:31.121Z,31.20
2018-06-06T11:54:31.116Z,31.30
2018-06-06T11:55:31.119Z,32.10
2018-06-06T11:56:31.095Z,31.40
2018-06-06T11:57:31.086Z,31.00
2018-06-06T11:58:31.078Z,32.50
2018-06-06T11:59:31.069Z,32.30
2018-06-06T12:00:31.059Z,32.20
2018-06-06T12:01:31.052Z,30.90
2018-06-06T12:02:31.043Z,32.20
2018-06-06T12:03:31.035Z,32.00
2018-06-06T12:04:31.028Z,31.60
2018-06-06T12:05:31.016Z,31.70
2018-06-06T12:06:31.010Z,32.80
2018-06-06T12:07:30.998Z,31.70
2018-06-06T12:08:30.988Z,31.00
2018-06-06T12:09:30.981Z,30.80
2018-06-06T12:10:30.973Z,31.80
2018-06-06T12:11:31.162Z,30.80
2018-06-06T12:12:30.956Z,31.10
2018-06-06T12:13:30.944Z,31.70
2018-06-06T12:14:30.938Z,31.50
2018-06-06T12:15:30.927Z,32.40
2018-06-06T12:16:30.917Z,36.00
2018-06-06T12:17:30.911Z,33.30
2018-06-06T12:18:30.902Z,32.30
2018-06-06T12:19:30.909Z,30.80
2018-06-06T12:20:30.884Z,32.60
2018-06-06T12:21:30.877Z,32.50
2018-06-06T12:22:30.867Z,32.50
2018-06-06T12:23:30.860Z,32.20
2018-06-06T12:24:30.848Z,32.40
2018-06-06T12:25:30.840Z,33.60
2018-06-06T12:26:30.832Z,33.10
2018-06-06T12:27:30.838Z,33.20
2018-06-06T12:28:30.815Z,33.30
2018-06-06T12:29:30.806Z,31.80
2018-06-06T12:30:30.798Z,32.10
2018-06-06T12:31:30.789Z,30.90
2018-06-06T12:32:30.782Z,30.40
2018-06-06T12:33:30.772Z,31.10
2018-06-06T12:34:30.764Z,31.60
2018-06-06T12:35:30.757Z,31.30
2018-06-06T12:36:30.747Z,31.40
2018-06-06T12:37:30.746Z,29.50
2018-06-06T12:38:30.730Z,28.50
2018-06-06T12:39:30.724Z,27.60
2018-06-06T12:40:30.714Z,29.00
2018-06-06T12:41:30.707Z,28.20
2018-06-06T12:42:30.699Z,30.60
2018-06-06T12:43:30.691Z,28.60
2018-06-06T12:44:30.683Z,29.10
2018-06-06T12:45:30.700Z,29.70
2018-06-06T12:46:30.668Z,29.90
2018-06-06T12:47:30.662Z,29.30
2018-06-06T12:48:30.651Z,30.00
2018-06-06T12:49:30.650Z,29.10
2018-06-06T12:50:30.636Z,29.80
2018-06-06T12:51:30.631Z,30.30
2018-06-06T12:52:30.824Z,29.70